Terminal Aerodrome Forecast
Issued by NWS

Home | Current Version | Previous Version | Text Only | Print | Product List | Glossary On
Versions: 1 2 3 4 5 6 7 8 9 10 11 12 13
000
FTUS46 KPDT 262300
TAFBDN
TAF
KBDN 262337Z 2700/2724 34008KT P6SM VCSH BKN045 BKN100
     FM270300 VRB03KT P6SM VCSH SCT023 BKN040
     FM270800 21004KT 6SM -SHRASN BKN018 OVC035
     FM271700 34004KT P6SM -SHRA BKN021 OVC040
     FM272100 35010KT P6SM VCSH FEW025 BKN045=

USA.gov is the U.S. government's official web portal to all federal, state and local government web resources and services.